sensor_id;sensor_type;location;lat;lon;timestamp;P1;durP1;ratioP1;P2;durP2;ratioP2
3141;SDS011;1581;51.568;6.998;2022-11-20T00:01:19;21.83;;;13.13;;
3141;SDS011;1581;51.568;6.998;2022-11-20T00:03:50;23.37;;;12.80;;
3141;SDS011;1581;51.568;6.998;2022-11-20T00:06:19;23.50;;;13.03;;
3141;SDS011;1581;51.568;6.998;2022-11-20T00:08:49;21.43;;;13.20;;
3141;SDS011;1581;51.568;6.998;2022-11-20T00:11:18;22.10;;;13.73;;
3141;SDS011;1581;51.568;6.998;2022-11-20T00:13:48;26.53;;;11.63;;
3141;SDS011;1581;51.568;6.998;2022-11-20T00:16:18;18.70;;;12.37;;
3141;SDS011;1581;51.568;6.998;2022-11-20T00:18:50;19.13;;;11.80;;
3141;SDS011;1581;51.568;6.998;2022-11-20T00:21:19;18.87;;;11.77;;
3141;SDS011;1581;51.568;6.998;2022-11-20T00:23:51;23.00;;;13.33;;
3141;SDS011;1581;51.568;6.998;2022-11-20T00:26:26;19.80;;;13.90;;
3141;SDS011;1581;51.568;6.998;2022-11-20T00:28:56;19.07;;;12.80;;
3141;SDS011;1581;51.568;6.998;2022-11-20T00:31:25;19.80;;;12.50;;
3141;SDS011;1581;51.568;6.998;2022-11-20T00:33:53;22.67;;;13.17;;
3141;SDS011;1581;51.568;6.998;2022-11-20T00:36:22;21.53;;;13.03;;
3141;SDS011;1581;51.568;6.998;2022-11-20T00:38:54;20.17;;;12.33;;
3141;SDS011;1581;51.568;6.998;2022-11-20T00:41:24;20.00;;;12.80;;
3141;SDS011;1581;51.568;6.998;2022-11-20T00:43:53;25.40;;;14.10;;
3141;SDS011;1581;51.568;6.998;2022-11-20T00:46:22;32.83;;;13.77;;
3141;SDS011;1581;51.568;6.998;2022-11-20T00:48:52;30.93;;;12.93;;
3141;SDS011;1581;51.568;6.998;2022-11-20T00:51:21;24.83;;;13.30;;
3141;SDS011;1581;51.568;6.998;2022-11-20T00:53:51;21.63;;;13.53;;
3141;SDS011;1581;51.568;6.998;2022-11-20T00:56:22;19.40;;;12.80;;
3141;SDS011;1581;51.568;6.998;2022-11-20T00:58:50;24.87;;;12.30;;
3141;SDS011;1581;51.568;6.998;2022-11-20T01:01:19;22.10;;;13.13;;
3141;SDS011;1581;51.568;6.998;2022-11-20T01:03:50;22.33;;;14.00;;
3141;SDS011;1581;51.568;6.998;2022-11-20T01:06:20;21.07;;;13.20;;
3141;SDS011;1581;51.568;6.998;2022-11-20T01:08:51;25.83;;;13.40;;
3141;SDS011;1581;51.568;6.998;2022-11-20T01:11:23;22.33;;;14.00;;
3141;SDS011;1581;51.568;6.998;2022-11-20T01:13:53;19.33;;;13.70;;
3141;SDS011;1581;51.568;6.998;2022-11-20T01:16:22;25.30;;;14.40;;
3141;SDS011;1581;51.568;6.998;2022-11-20T01:18:53;20.53;;;12.87;;
3141;SDS011;1581;51.568;6.998;2022-11-20T01:21:26;23.90;;;13.17;;
3141;SDS011;1581;51.568;6.998;2022-11-20T01:23:57;18.20;;;12.40;;
3141;SDS011;1581;51.568;6.998;2022-11-20T01:26:29;18.40;;;12.50;;
3141;SDS011;1581;51.568;6.998;2022-11-20T01:28:59;18.23;;;11.87;;
3141;SDS011;1581;51.568;6.998;2022-11-20T01:31:28;25.53;;;14.40;;
3141;SDS011;1581;51.568;6.998;2022-11-20T01:34:00;20.63;;;14.67;;
3141;SDS011;1581;51.568;6.998;2022-11-20T01:36:31;23.27;;;15.20;;
3141;SDS011;1581;51.568;6.998;2022-11-20T01:39:02;32.13;;;15.90;;
3141;SDS011;1581;51.568;6.998;2022-11-20T01:41:33;29.40;;;16.73;;
3141;SDS011;1581;51.568;6.998;2022-11-20T01:44:19;24.83;;;15.10;;
3141;SDS011;1581;51.568;6.998;2022-11-20T01:46:52;24.60;;;13.93;;
3141;SDS011;1581;51.568;6.998;2022-11-20T01:49:24;27.00;;;13.90;;
3141;SDS011;1581;51.568;6.998;2022-11-20T01:51:58;33.13;;;15.80;;
3141;SDS011;1581;51.568;6.998;2022-11-20T01:54:35;28.53;;;16.53;;
3141;SDS011;1581;51.568;6.998;2022-11-20T01:57:06;26.73;;;16.10;;
3141;SDS011;1581;51.568;6.998;2022-11-20T01:59:37;27.17;;;15.77;;
3141;SDS011;1581;51.568;6.998;2022-11-20T02:02:08;22.97;;;14.23;;
3141;SDS011;1581;51.568;6.998;2022-11-20T02:04:35;19.97;;;13.23;;
3141;SDS011;1581;51.568;6.998;2022-11-20T02:07:04;20.80;;;13.23;;
3141;SDS011;1581;51.568;6.998;2022-11-20T02:09:31;20.40;;;13.57;;
3141;SDS011;1581;51.568;6.998;2022-11-20T02:12:01;25.07;;;15.10;;
3141;SDS011;1581;51.568;6.998;2022-11-20T02:14:29;24.80;;;14.53;;
3141;SDS011;1581;51.568;6.998;2022-11-20T02:16:56;23.90;;;14.80;;
3141;SDS011;1581;51.568;6.998;2022-11-20T02:19:26;25.50;;;14.90;;
3141;SDS011;1581;51.568;6.998;2022-11-20T02:21:58;29.00;;;14.93;;
3141;SDS011;1581;51.568;6.998;2022-11-20T02:24:35;23.63;;;13.23;;
3141;SDS011;1581;51.568;6.998;2022-11-20T02:27:03;25.50;;;14.10;;
3141;SDS011;1581;51.568;6.998;2022-11-20T02:29:35;20.90;;;12.60;;
3141;SDS011;1581;51.568;6.998;2022-11-20T02:32:17;21.60;;;14.03;;
3141;SDS011;1581;51.568;6.998;2022-11-20T02:34:45;21.97;;;14.43;;
3141;SDS011;1581;51.568;6.998;2022-11-20T02:37:13;23.10;;;14.77;;
3141;SDS011;1581;51.568;6.998;2022-11-20T02:39:43;22.70;;;13.53;;
3141;SDS011;1581;51.568;6.998;2022-11-20T02:42:12;22.17;;;13.97;;
3141;SDS011;1581;51.568;6.998;2022-11-20T02:44:40;23.83;;;14.33;;
3141;SDS011;1581;51.568;6.998;2022-11-20T02:47:07;24.10;;;14.30;;
3141;SDS011;1581;51.568;6.998;2022-11-20T02:49:37;30.63;;;15.57;;
3141;SDS011;1581;51.568;6.998;2022-11-20T02:52:06;23.50;;;13.60;;
3141;SDS011;1581;51.568;6.998;2022-11-20T02:54:33;23.50;;;15.47;;
3141;SDS011;1581;51.568;6.998;2022-11-20T02:57:03;24.47;;;14.77;;
3141;SDS011;1581;51.568;6.998;2022-11-20T02:59:32;24.90;;;14.47;;
3141;SDS011;1581;51.568;6.998;2022-11-20T03:02:00;28.23;;;15.00;;
3141;SDS011;1581;51.568;6.998;2022-11-20T03:04:27;25.97;;;16.23;;
3141;SDS011;1581;51.568;6.998;2022-11-20T03:06:55;27.00;;;15.33;;
3141;SDS011;1581;51.568;6.998;2022-11-20T03:09:22;23.57;;;14.57;;
3141;SDS011;1581;51.568;6.998;2022-11-20T03:11:50;26.63;;;15.30;;
3141;SDS011;1581;51.568;6.998;2022-11-20T03:14:21;25.70;;;15.07;;
3141;SDS011;1581;51.568;6.998;2022-11-20T03:16:51;32.20;;;17.87;;
3141;SDS011;1581;51.568;6.998;2022-11-20T03:19:19;31.50;;;16.60;;
3141;SDS011;1581;51.568;6.998;2022-11-20T03:21:47;32.37;;;17.67;;
3141;SDS011;1581;51.568;6.998;2022-11-20T03:24:16;27.10;;;16.53;;
3141;SDS011;1581;51.568;6.998;2022-11-20T03:26:47;26.83;;;15.10;;
3141;SDS011;1581;51.568;6.998;2022-11-20T03:29:17;25.63;;;14.87;;
3141;SDS011;1581;51.568;6.998;2022-11-20T03:31:45;27.80;;;15.03;;
3141;SDS011;1581;51.568;6.998;2022-11-20T03:34:13;24.97;;;14.53;;
3141;SDS011;1581;51.568;6.998;2022-11-20T03:36:41;29.93;;;17.30;;
3141;SDS011;1581;51.568;6.998;2022-11-20T03:39:09;28.70;;;16.27;;
3141;SDS011;1581;51.568;6.998;2022-11-20T03:41:37;34.77;;;19.27;;
3141;SDS011;1581;51.568;6.998;2022-11-20T03:44:08;37.33;;;20.10;;
3141;SDS011;1581;51.568;6.998;2022-11-20T03:46:37;32.50;;;18.00;;
3141;SDS011;1581;51.568;6.998;2022-11-20T03:49:06;29.07;;;17.30;;
3141;SDS011;1581;51.568;6.998;2022-11-20T03:51:35;32.00;;;18.20;;
3141;SDS011;1581;51.568;6.998;2022-11-20T03:54:03;33.63;;;18.93;;
3141;SDS011;1581;51.568;6.998;2022-11-20T03:56:35;29.37;;;18.27;;
3141;SDS011;1581;51.568;6.998;2022-11-20T03:59:04;27.47;;;17.37;;
3141;SDS011;1581;51.568;6.998;2022-11-20T04:01:43;28.00;;;16.70;;
3141;SDS011;1581;51.568;6.998;2022-11-20T04:04:13;30.30;;;16.83;;
3141;SDS011;1581;51.568;6.998;2022-11-20T04:06:46;29.53;;;17.57;;
3141;SDS011;1581;51.568;6.998;2022-11-20T04:09:14;27.67;;;16.07;;
3141;SDS011;1581;51.568;6.998;2022-11-20T04:11:42;29.80;;;16.67;;
3141;SDS011;1581;51.568;6.998;2022-11-20T04:14:12;28.67;;;16.63;;
3141;SDS011;1581;51.568;6.998;2022-11-20T04:16:41;27.87;;;16.40;;
3141;SDS011;1581;51.568;6.998;2022-11-20T04:19:10;29.37;;;17.17;;
3141;SDS011;1581;51.568;6.998;2022-11-20T04:21:41;26.30;;;16.27;;
3141;SDS011;1581;51.568;6.998;2022-11-20T04:24:10;24.47;;;15.40;;
3141;SDS011;1581;51.568;6.998;2022-11-20T04:26:38;25.00;;;14.70;;
3141;SDS011;1581;51.568;6.998;2022-11-20T04:29:09;23.03;;;15.00;;
3141;SDS011;1581;51.568;6.998;2022-11-20T04:31:37;24.97;;;15.47;;
3141;SDS011;1581;51.568;6.998;2022-11-20T04:34:05;21.50;;;14.10;;
3141;SDS011;1581;51.568;6.998;2022-11-20T04:36:35;24.23;;;14.07;;
3141;SDS011;1581;51.568;6.998;2022-11-20T04:39:03;24.93;;;14.60;;
3141;SDS011;1581;51.568;6.998;2022-11-20T04:41:33;24.90;;;14.70;;
3141;SDS011;1581;51.568;6.998;2022-11-20T04:44:03;21.33;;;13.40;;
3141;SDS011;1581;51.568;6.998;2022-11-20T04:46:33;17.83;;;12.47;;
3141;SDS011;1581;51.568;6.998;2022-11-20T04:49:02;22.50;;;14.43;;
3141;SDS011;1581;51.568;6.998;2022-11-20T04:51:31;22.40;;;14.57;;
3141;SDS011;1581;51.568;6.998;2022-11-20T04:54:00;23.30;;;14.70;;
3141;SDS011;1581;51.568;6.998;2022-11-20T04:56:28;24.93;;;13.90;;
3141;SDS011;1581;51.568;6.998;2022-11-20T04:58:55;20.47;;;14.60;;
3141;SDS011;1581;51.568;6.998;2022-11-20T05:01:27;23.00;;;14.70;;
3141;SDS011;1581;51.568;6.998;2022-11-20T05:03:55;24.33;;;13.33;;
3141;SDS011;1581;51.568;6.998;2022-11-20T05:06:22;23.73;;;14.87;;
3141;SDS011;1581;51.568;6.998;2022-11-20T05:08:50;20.27;;;13.10;;
3141;SDS011;1581;51.568;6.998;2022-11-20T05:11:19;24.20;;;16.00;;
3141;SDS011;1581;51.568;6.998;2022-11-20T05:13:48;23.57;;;13.90;;
3141;SDS011;1581;51.568;6.998;2022-11-20T05:16:17;22.23;;;14.23;;
3141;SDS011;1581;51.568;6.998;2022-11-20T05:18:46;22.17;;;14.47;;
3141;SDS011;1581;51.568;6.998;2022-11-20T05:21:14;23.00;;;13.93;;
3141;SDS011;1581;51.568;6.998;2022-11-20T05:23:43;23.33;;;14.67;;
3141;SDS011;1581;51.568;6.998;2022-11-20T05:26:15;22.90;;;14.60;;
3141;SDS011;1581;51.568;6.998;2022-11-20T05:28:45;22.73;;;13.50;;
3141;SDS011;1581;51.568;6.998;2022-11-20T05:31:14;24.40;;;14.53;;
3141;SDS011;1581;51.568;6.998;2022-11-20T05:33:44;26.63;;;14.37;;
3141;SDS011;1581;51.568;6.998;2022-11-20T05:36:15;25.97;;;14.90;;
3141;SDS011;1581;51.568;6.998;2022-11-20T05:38:46;24.33;;;15.10;;
3141;SDS011;1581;51.568;6.998;2022-11-20T05:41:14;19.97;;;14.00;;
3141;SDS011;1581;51.568;6.998;2022-11-20T05:43:46;21.87;;;13.40;;
3141;SDS011;1581;51.568;6.998;2022-11-20T05:46:15;27.03;;;15.97;;
3141;SDS011;1581;51.568;6.998;2022-11-20T05:48:45;27.63;;;13.60;;
3141;SDS011;1581;51.568;6.998;2022-11-20T05:51:14;25.37;;;14.67;;
3141;SDS011;1581;51.568;6.998;2022-11-20T05:53:43;19.43;;;13.03;;
3141;SDS011;1581;51.568;6.998;2022-11-20T05:56:12;21.47;;;13.57;;
3141;SDS011;1581;51.568;6.998;2022-11-20T05:58:42;20.67;;;13.30;;
3141;SDS011;1581;51.568;6.998;2022-11-20T06:01:13;28.73;;;14.27;;
3141;SDS011;1581;51.568;6.998;2022-11-20T06:03:45;24.63;;;14.67;;
3141;SDS011;1581;51.568;6.998;2022-11-20T06:06:15;23.80;;;14.10;;
3141;SDS011;1581;51.568;6.998;2022-11-20T06:08:44;22.37;;;14.90;;
3141;SDS011;1581;51.568;6.998;2022-11-20T06:11:13;22.10;;;14.40;;
3141;SDS011;1581;51.568;6.998;2022-11-20T06:13:42;22.83;;;13.20;;
3141;SDS011;1581;51.568;6.998;2022-11-20T06:16:13;23.70;;;14.30;;
3141;SDS011;1581;51.568;6.998;2022-11-20T06:18:43;27.77;;;15.67;;
3141;SDS011;1581;51.568;6.998;2022-11-20T06:21:12;28.90;;;14.17;;
3141;SDS011;1581;51.568;6.998;2022-11-20T06:23:42;22.20;;;13.47;;
3141;SDS011;1581;51.568;6.998;2022-11-20T06:26:12;23.90;;;14.20;;
3141;SDS011;1581;51.568;6.998;2022-11-20T06:28:44;19.23;;;13.27;;
3141;SDS011;1581;51.568;6.998;2022-11-20T06:31:16;22.97;;;14.13;;
3141;SDS011;1581;51.568;6.998;2022-11-20T06:33:48;23.50;;;14.60;;
3141;SDS011;1581;51.568;6.998;2022-11-20T06:36:19;21.43;;;14.60;;
3141;SDS011;1581;51.568;6.998;2022-11-20T06:38:49;21.17;;;13.60;;
3141;SDS011;1581;51.568;6.998;2022-11-20T06:41:17;25.50;;;14.60;;
3141;SDS011;1581;51.568;6.998;2022-11-20T06:43:47;21.77;;;13.87;;
3141;SDS011;1581;51.568;6.998;2022-11-20T06:46:16;23.63;;;13.97;;
3141;SDS011;1581;51.568;6.998;2022-11-20T06:48:45;25.73;;;15.57;;
3141;SDS011;1581;51.568;6.998;2022-11-20T06:51:14;22.60;;;13.70;;
3141;SDS011;1581;51.568;6.998;2022-11-20T06:53:42;22.27;;;13.80;;
3141;SDS011;1581;51.568;6.998;2022-11-20T06:56:10;19.93;;;12.77;;
3141;SDS011;1581;51.568;6.998;2022-11-20T06:58:37;22.23;;;14.53;;
3141;SDS011;1581;51.568;6.998;2022-11-20T07:01:06;26.07;;;14.47;;
3141;SDS011;1581;51.568;6.998;2022-11-20T07:03:37;21.53;;;14.20;;
3141;SDS011;1581;51.568;6.998;2022-11-20T07:06:05;20.73;;;12.90;;
3141;SDS011;1581;51.568;6.998;2022-11-20T07:08:34;25.93;;;13.90;;
3141;SDS011;1581;51.568;6.998;2022-11-20T07:11:03;26.43;;;12.40;;
3141;SDS011;1581;51.568;6.998;2022-11-20T07:13:32;21.80;;;13.30;;
3141;SDS011;1581;51.568;6.998;2022-11-20T07:16:00;19.37;;;13.20;;
3141;SDS011;1581;51.568;6.998;2022-11-20T07:18:30;24.67;;;14.53;;
3141;SDS011;1581;51.568;6.998;2022-11-20T07:21:01;26.07;;;16.00;;
3141;SDS011;1581;51.568;6.998;2022-11-20T07:23:30;25.33;;;16.07;;
3141;SDS011;1581;51.568;6.998;2022-11-20T07:25:58;24.93;;;15.57;;
3141;SDS011;1581;51.568;6.998;2022-11-20T07:28:29;28.37;;;16.73;;
3141;SDS011;1581;51.568;6.998;2022-11-20T07:30:57;25.13;;;16.10;;
3141;SDS011;1581;51.568;6.998;2022-11-20T07:33:24;25.77;;;15.97;;
3141;SDS011;1581;51.568;6.998;2022-11-20T07:35:52;24.37;;;15.83;;
3141;SDS011;1581;51.568;6.998;2022-11-20T07:38:21;25.67;;;15.97;;
3141;SDS011;1581;51.568;6.998;2022-11-20T07:40:52;28.43;;;16.50;;
3141;SDS011;1581;51.568;6.998;2022-11-20T07:43:21;28.93;;;14.40;;
3141;SDS011;1581;51.568;6.998;2022-11-20T07:45:49;23.83;;;15.10;;
3141;SDS011;1581;51.568;6.998;2022-11-20T07:48:16;25.70;;;15.07;;
3141;SDS011;1581;51.568;6.998;2022-11-20T07:50:44;27.10;;;15.77;;
3141;SDS011;1581;51.568;6.998;2022-11-20T07:53:12;29.63;;;16.20;;
3141;SDS011;1581;51.568;6.998;2022-11-20T07:55:49;27.37;;;15.87;;
3141;SDS011;1581;51.568;6.998;2022-11-20T07:58:18;25.23;;;15.23;;
3141;SDS011;1581;51.568;6.998;2022-11-20T08:00:45;24.60;;;15.80;;
3141;SDS011;1581;51.568;6.998;2022-11-20T08:03:13;25.90;;;16.40;;
3141;SDS011;1581;51.568;6.998;2022-11-20T08:05:41;23.97;;;15.70;;
3141;SDS011;1581;51.568;6.998;2022-11-20T08:08:08;29.30;;;17.67;;
3141;SDS011;1581;51.568;6.998;2022-11-20T08:10:36;28.73;;;17.87;;
3141;SDS011;1581;51.568;6.998;2022-11-20T08:13:05;28.80;;;17.80;;
3141;SDS011;1581;51.568;6.998;2022-11-20T08:15:59;33.80;;;20.33;;
3141;SDS011;1581;51.568;6.998;2022-11-20T08:18:34;28.90;;;17.93;;
3141;SDS011;1581;51.568;6.998;2022-11-20T08:21:07;35.80;;;18.53;;
3141;SDS011;1581;51.568;6.998;2022-11-20T08:23:42;36.40;;;18.63;;
3141;SDS011;1581;51.568;6.998;2022-11-20T08:26:12;36.77;;;20.47;;
3141;SDS011;1581;51.568;6.998;2022-11-20T08:28:41;39.90;;;22.17;;
3141;SDS011;1581;51.568;6.998;2022-11-20T08:31:09;38.73;;;22.20;;
3141;SDS011;1581;51.568;6.998;2022-11-20T08:33:37;40.97;;;23.03;;
3141;SDS011;1581;51.568;6.998;2022-11-20T08:36:05;35.20;;;19.87;;
3141;SDS011;1581;51.568;6.998;2022-11-20T08:38:33;42.07;;;21.60;;
3141;SDS011;1581;51.568;6.998;2022-11-20T08:41:01;39.67;;;21.10;;
3141;SDS011;1581;51.568;6.998;2022-11-20T08:43:58;38.90;;;23.83;;
3141;SDS011;1581;51.568;6.998;2022-11-20T08:46:28;37.10;;;21.87;;
3141;SDS011;1581;51.568;6.998;2022-11-20T08:49:00;42.80;;;22.50;;
3141;SDS011;1581;51.568;6.998;2022-11-20T08:51:29;35.30;;;20.60;;
3141;SDS011;1581;51.568;6.998;2022-11-20T08:53:56;38.30;;;21.03;;
3141;SDS011;1581;51.568;6.998;2022-11-20T08:56:24;35.90;;;20.40;;
3141;SDS011;1581;51.568;6.998;2022-11-20T08:58:52;34.97;;;20.20;;
3141;SDS011;1581;51.568;6.998;2022-11-20T09:01:22;33.53;;;19.27;;
3141;SDS011;1581;51.568;6.998;2022-11-20T09:03:50;34.30;;;19.50;;
3141;SDS011;1581;51.568;6.998;2022-11-20T09:06:18;31.63;;;19.17;;
3141;SDS011;1581;51.568;6.998;2022-11-20T09:08:46;35.93;;;22.17;;
3141;SDS011;1581;51.568;6.998;2022-11-20T09:11:17;39.10;;;21.90;;
3141;SDS011;1581;51.568;6.998;2022-11-20T09:13:46;35.63;;;19.87;;
3141;SDS011;1581;51.568;6.998;2022-11-20T09:16:14;36.03;;;20.70;;
3141;SDS011;1581;51.568;6.998;2022-11-20T09:18:43;42.43;;;20.60;;
3141;SDS011;1581;51.568;6.998;2022-11-20T09:21:14;35.20;;;20.07;;
3141;SDS011;1581;51.568;6.998;2022-11-20T09:23:42;39.37;;;21.90;;
3141;SDS011;1581;51.568;6.998;2022-11-20T09:26:13;34.87;;;20.60;;
3141;SDS011;1581;51.568;6.998;2022-11-20T09:28:40;36.30;;;20.97;;
3141;SDS011;1581;51.568;6.998;2022-11-20T09:31:15;32.33;;;19.90;;
3141;SDS011;1581;51.568;6.998;2022-11-20T09:33:55;32.73;;;21.37;;
3141;SDS011;1581;51.568;6.998;2022-11-20T09:36:23;37.60;;;22.70;;
3141;SDS011;1581;51.568;6.998;2022-11-20T09:38:51;36.20;;;22.93;;
3141;SDS011;1581;51.568;6.998;2022-11-20T09:41:26;38.87;;;21.70;;
3141;SDS011;1581;51.568;6.998;2022-11-20T09:44:20;39.20;;;22.60;;
3141;SDS011;1581;51.568;6.998;2022-11-20T09:47:07;39.30;;;24.00;;
3141;SDS011;1581;51.568;6.998;2022-11-20T09:49:47;37.73;;;22.03;;
3141;SDS011;1581;51.568;6.998;2022-11-20T09:52:30;45.60;;;23.20;;
3141;SDS011;1581;51.568;6.998;2022-11-20T09:55:10;34.47;;;21.97;;
3141;SDS011;1581;51.568;6.998;2022-11-20T09:57:44;33.07;;;21.40;;
3141;SDS011;1581;51.568;6.998;2022-11-20T10:00:15;43.80;;;21.93;;
3141;SDS011;1581;51.568;6.998;2022-11-20T10:02:47;34.07;;;21.20;;
3141;SDS011;1581;51.568;6.998;2022-11-20T10:05:24;34.17;;;21.53;;
3141;SDS011;1581;51.568;6.998;2022-11-20T10:08:01;34.43;;;22.00;;
3141;SDS011;1581;51.568;6.998;2022-11-20T10:10:40;48.60;;;24.93;;
3141;SDS011;1581;51.568;6.998;2022-11-20T10:13:22;36.53;;;24.37;;
3141;SDS011;1581;51.568;6.998;2022-11-20T10:16:06;35.50;;;23.50;;
3141;SDS011;1581;51.568;6.998;2022-11-20T10:18:49;38.23;;;22.47;;
3141;SDS011;1581;51.568;6.998;2022-11-20T10:21:37;41.23;;;23.37;;
3141;SDS011;1581;51.568;6.998;2022-11-20T10:24:38;38.07;;;22.17;;
3141;SDS011;1581;51.568;6.998;2022-11-20T10:27:32;32.70;;;22.67;;
3141;SDS011;1581;51.568;6.998;2022-11-20T10:30:30;28.93;;;18.43;;
3141;SDS011;1581;51.568;6.998;2022-11-20T10:33:05;30.63;;;19.00;;
3141;SDS011;1581;51.568;6.998;2022-11-20T10:35:41;29.43;;;17.10;;
3141;SDS011;1581;51.568;6.998;2022-11-20T10:38:14;31.87;;;18.83;;
3141;SDS011;1581;51.568;6.998;2022-11-20T10:40:48;30.57;;;18.83;;
3141;SDS011;1581;51.568;6.998;2022-11-20T10:43:41;25.13;;;15.80;;
3141;SDS011;1581;51.568;6.998;2022-11-20T10:46:12;24.67;;;15.40;;
3141;SDS011;1581;51.568;6.998;2022-11-20T10:48:45;24.00;;;15.60;;
3141;SDS011;1581;51.568;6.998;2022-11-20T10:51:15;28.13;;;16.80;;
3141;SDS011;1581;51.568;6.998;2022-11-20T10:54:04;18.53;;;11.70;;
3141;SDS011;1581;51.568;6.998;2022-11-20T10:56:52;11.37;;;7.27;;
3141;SDS011;1581;51.568;6.998;2022-11-20T10:59:32;11.00;;;7.53;;
3141;SDS011;1581;51.568;6.998;2022-11-20T11:02:17;20.80;;;10.70;;
3141;SDS011;1581;51.568;6.998;2022-11-20T11:04:49;16.33;;;9.43;;
3141;SDS011;1581;51.568;6.998;2022-11-20T11:07:20;17.60;;;11.67;;
3141;SDS011;1581;51.568;6.998;2022-11-20T11:09:54;20.27;;;13.27;;
3141;SDS011;1581;51.568;6.998;2022-11-20T11:12:23;24.37;;;14.70;;
3141;SDS011;1581;51.568;6.998;2022-11-20T11:14:54;21.27;;;15.47;;
3141;SDS011;1581;51.568;6.998;2022-11-20T11:17:24;24.23;;;15.83;;
3141;SDS011;1581;51.568;6.998;2022-11-20T11:20:01;22.53;;;15.10;;
3141;SDS011;1581;51.568;6.998;2022-11-20T11:22:43;26.67;;;16.10;;
3141;SDS011;1581;51.568;6.998;2022-11-20T11:25:21;27.10;;;15.50;;
3141;SDS011;1581;51.568;6.998;2022-11-20T11:27:56;23.17;;;14.17;;
3141;SDS011;1581;51.568;6.998;2022-11-20T11:30:26;27.47;;;16.20;;
3141;SDS011;1581;51.568;6.998;2022-11-20T11:33:05;21.07;;;14.17;;
3141;SDS011;1581;51.568;6.998;2022-11-20T11:35:38;23.53;;;14.70;;
3141;SDS011;1581;51.568;6.998;2022-11-20T11:38:14;24.37;;;15.40;;
3141;SDS011;1581;51.568;6.998;2022-11-20T11:40:47;21.70;;;13.30;;
3141;SDS011;1581;51.568;6.998;2022-11-20T11:43:17;25.00;;;14.93;;
3141;SDS011;1581;51.568;6.998;2022-11-20T11:46:06;23.50;;;15.40;;
3141;SDS011;1581;51.568;6.998;2022-11-20T11:48:57;25.60;;;14.40;;
3141;SDS011;1581;51.568;6.998;2022-11-20T11:51:31;22.73;;;13.30;;
3141;SDS011;1581;51.568;6.998;2022-11-20T11:54:10;24.70;;;13.60;;
3141;SDS011;1581;51.568;6.998;2022-11-20T11:56:47;20.87;;;14.20;;
3141;SDS011;1581;51.568;6.998;2022-11-20T11:59:16;21.33;;;13.43;;
3141;SDS011;1581;51.568;6.998;2022-11-20T12:01:53;24.77;;;14.23;;
3141;SDS011;1581;51.568;6.998;2022-11-20T12:04:26;24.50;;;14.80;;
3141;SDS011;1581;51.568;6.998;2022-11-20T12:07:14;24.37;;;15.00;;
3141;SDS011;1581;51.568;6.998;2022-11-20T12:09:49;23.27;;;14.53;;
3141;SDS011;1581;51.568;6.998;2022-11-20T12:12:24;25.30;;;15.20;;
3141;SDS011;1581;51.568;6.998;2022-11-20T12:14:56;29.47;;;15.87;;
3141;SDS011;1581;51.568;6.998;2022-11-20T12:17:25;23.70;;;15.20;;
3141;SDS011;1581;51.568;6.998;2022-11-20T12:19:54;25.37;;;15.37;;
3141;SDS011;1581;51.568;6.998;2022-11-20T12:22:26;26.70;;;16.77;;
3141;SDS011;1581;51.568;6.998;2022-11-20T12:25:02;30.37;;;17.50;;
3141;SDS011;1581;51.568;6.998;2022-11-20T12:30:47;23.40;;;16.03;;
3141;SDS011;1581;51.568;6.998;2022-11-20T12:33:34;23.67;;;16.27;;
3141;SDS011;1581;51.568;6.998;2022-11-20T12:36:40;30.03;;;17.60;;
3141;SDS011;1581;51.568;6.998;2022-11-20T12:39:22;27.57;;;15.97;;
3141;SDS011;1581;51.568;6.998;2022-11-20T12:42:16;29.23;;;17.23;;
3141;SDS011;1581;51.568;6.998;2022-11-20T12:45:35;26.13;;;16.50;;
3141;SDS011;1581;51.568;6.998;2022-11-20T12:51:51;25.13;;;15.47;;
3141;SDS011;1581;51.568;6.998;2022-11-20T12:55:12;26.40;;;16.47;;
3141;SDS011;1581;51.568;6.998;2022-11-20T12:58:01;33.63;;;16.70;;
3141;SDS011;1581;51.568;6.998;2022-11-20T13:00:38;27.57;;;17.20;;
3141;SDS011;1581;51.568;6.998;2022-11-20T13:03:25;29.73;;;17.90;;
3141;SDS011;1581;51.568;6.998;2022-11-20T13:06:05;34.07;;;17.50;;
3141;SDS011;1581;51.568;6.998;2022-11-20T13:08:42;25.17;;;16.33;;
3141;SDS011;1581;51.568;6.998;2022-11-20T13:11:17;31.83;;;17.87;;
3141;SDS011;1581;51.568;6.998;2022-11-20T13:13:58;33.30;;;18.80;;
3141;SDS011;1581;51.568;6.998;2022-11-20T13:16:41;31.67;;;18.73;;
3141;SDS011;1581;51.568;6.998;2022-11-20T13:19:16;27.63;;;17.70;;
3141;SDS011;1581;51.568;6.998;2022-11-20T13:21:45;27.43;;;16.37;;
3141;SDS011;1581;51.568;6.998;2022-11-20T13:24:22;32.80;;;18.53;;
3141;SDS011;1581;51.568;6.998;2022-11-20T13:27:02;31.13;;;16.40;;
3141;SDS011;1581;51.568;6.998;2022-11-20T13:29:43;27.00;;;16.30;;
3141;SDS011;1581;51.568;6.998;2022-11-20T13:32:15;28.00;;;16.83;;
3141;SDS011;1581;51.568;6.998;2022-11-20T13:34:54;29.67;;;17.50;;
3141;SDS011;1581;51.568;6.998;2022-11-20T13:37:24;28.10;;;18.50;;
3141;SDS011;1581;51.568;6.998;2022-11-20T13:40:05;25.73;;;16.00;;
3141;SDS011;1581;51.568;6.998;2022-11-20T13:42:54;25.83;;;15.93;;
3141;SDS011;1581;51.568;6.998;2022-11-20T13:45:31;19.77;;;13.57;;
3141;SDS011;1581;51.568;6.998;2022-11-20T13:48:03;22.50;;;14.63;;
3141;SDS011;1581;51.568;6.998;2022-11-20T13:50:46;21.20;;;13.50;;
3141;SDS011;1581;51.568;6.998;2022-11-20T13:53:34;23.97;;;14.90;;
3141;SDS011;1581;51.568;6.998;2022-11-20T13:56:36;21.67;;;13.20;;
3141;SDS011;1581;51.568;6.998;2022-11-20T13:59:24;25.00;;;12.67;;
3141;SDS011;1581;51.568;6.998;2022-11-20T14:02:10;20.30;;;12.70;;
3141;SDS011;1581;51.568;6.998;2022-11-20T14:04:45;23.07;;;15.07;;
3141;SDS011;1581;51.568;6.998;2022-11-20T14:07:18;25.90;;;14.07;;
3141;SDS011;1581;51.568;6.998;2022-11-20T14:09:53;19.63;;;12.80;;
3141;SDS011;1581;51.568;6.998;2022-11-20T14:12:27;22.77;;;13.47;;
3141;SDS011;1581;51.568;6.998;2022-11-20T14:14:59;19.20;;;13.70;;
3141;SDS011;1581;51.568;6.998;2022-11-20T14:17:30;24.80;;;14.17;;
3141;SDS011;1581;51.568;6.998;2022-11-20T14:20:03;22.47;;;14.40;;
3141;SDS011;1581;51.568;6.998;2022-11-20T14:22:38;24.43;;;14.30;;
3141;SDS011;1581;51.568;6.998;2022-11-20T14:25:19;29.00;;;16.40;;
3141;SDS011;1581;51.568;6.998;2022-11-20T14:27:52;22.73;;;14.50;;
3141;SDS011;1581;51.568;6.998;2022-11-20T14:30:22;23.23;;;14.67;;
3141;SDS011;1581;51.568;6.998;2022-11-20T14:32:53;21.13;;;13.40;;
3141;SDS011;1581;51.568;6.998;2022-11-20T14:35:27;29.13;;;15.73;;
3141;SDS011;1581;51.568;6.998;2022-11-20T14:37:56;27.70;;;16.63;;
3141;SDS011;1581;51.568;6.998;2022-11-20T14:40:26;30.33;;;16.60;;
3141;SDS011;1581;51.568;6.998;2022-11-20T14:42:57;28.40;;;17.53;;
3141;SDS011;1581;51.568;6.998;2022-11-20T14:45:26;29.53;;;15.80;;
3141;SDS011;1581;51.568;6.998;2022-11-20T14:47:57;27.73;;;17.60;;
3141;SDS011;1581;51.568;6.998;2022-11-20T14:50:28;25.20;;;17.20;;
3141;SDS011;1581;51.568;6.998;2022-11-20T14:52:56;27.33;;;16.60;;
3141;SDS011;1581;51.568;6.998;2022-11-20T14:55:25;27.10;;;15.30;;
3141;SDS011;1581;51.568;6.998;2022-11-20T14:58:00;22.03;;;15.00;;
3141;SDS011;1581;51.568;6.998;2022-11-20T15:00:30;26.67;;;15.57;;
3141;SDS011;1581;51.568;6.998;2022-11-20T15:02:59;22.47;;;15.40;;
3141;SDS011;1581;51.568;6.998;2022-11-20T15:05:44;24.23;;;15.50;;
3141;SDS011;1581;51.568;6.998;2022-11-20T15:08:14;24.63;;;14.47;;
3141;SDS011;1581;51.568;6.998;2022-11-20T15:10:45;20.23;;;13.70;;
3141;SDS011;1581;51.568;6.998;2022-11-20T15:13:15;24.77;;;14.53;;
3141;SDS011;1581;51.568;6.998;2022-11-20T15:15:50;26.90;;;15.50;;
3141;SDS011;1581;51.568;6.998;2022-11-20T15:18:21;25.20;;;15.90;;
3141;SDS011;1581;51.568;6.998;2022-11-20T15:20:53;28.37;;;15.87;;
3141;SDS011;1581;51.568;6.998;2022-11-20T15:23:23;25.50;;;15.90;;
3141;SDS011;1581;51.568;6.998;2022-11-20T15:25:52;28.77;;;17.20;;
3141;SDS011;1581;51.568;6.998;2022-11-20T15:28:21;27.13;;;16.60;;